sensor_id;sensor_type;location;lat;lon;timestamp;P1;durP1;ratioP1;P2;durP2;ratioP2
18780;SDS011;9519;51.890;8.970;2023-04-06T00:03:35;12.37;;;7.00;;
18780;SDS011;9519;51.890;8.970;2023-04-06T00:08:39;13.43;;;7.23;;
18780;SDS011;9519;51.890;8.970;2023-04-06T00:13:41;10.87;;;6.73;;
18780;SDS011;9519;51.890;8.970;2023-04-06T00:18:43;11.23;;;7.23;;
18780;SDS011;9519;51.890;8.970;2023-04-06T00:23:47;10.23;;;7.07;;
18780;SDS011;9519;51.890;8.970;2023-04-06T00:28:49;12.00;;;7.60;;
18780;SDS011;9519;51.890;8.970;2023-04-06T00:33:52;13.87;;;7.37;;
18780;SDS011;9519;51.890;8.970;2023-04-06T00:38:56;10.00;;;7.23;;
18780;SDS011;9519;51.890;8.970;2023-04-06T00:43:58;11.67;;;7.07;;
18780;SDS011;9519;51.890;8.970;2023-04-06T00:49:00;10.57;;;7.03;;
18780;SDS011;9519;51.890;8.970;2023-04-06T00:54:04;13.17;;;6.73;;
18780;SDS011;9519;51.890;8.970;2023-04-06T00:59:06;12.37;;;7.30;;
18780;SDS011;9519;51.890;8.970;2023-04-06T01:04:09;12.47;;;7.50;;
18780;SDS011;9519;51.890;8.970;2023-04-06T01:09:14;11.50;;;7.33;;
18780;SDS011;9519;51.890;8.970;2023-04-06T01:14:16;9.03;;;6.70;;
18780;SDS011;9519;51.890;8.970;2023-04-06T01:19:18;11.90;;;7.30;;
18780;SDS011;9519;51.890;8.970;2023-04-06T01:24:23;10.60;;;7.13;;
18780;SDS011;9519;51.890;8.970;2023-04-06T01:29:25;12.60;;;7.70;;
18780;SDS011;9519;51.890;8.970;2023-04-06T01:34:27;11.67;;;7.00;;
18780;SDS011;9519;51.890;8.970;2023-04-06T01:39:31;10.37;;;7.47;;
18780;SDS011;9519;51.890;8.970;2023-04-06T01:44:33;12.10;;;7.70;;
18780;SDS011;9519;51.890;8.970;2023-04-06T01:49:35;13.43;;;7.33;;
18780;SDS011;9519;51.890;8.970;2023-04-06T01:54:39;10.63;;;7.40;;
18780;SDS011;9519;51.890;8.970;2023-04-06T01:59:41;11.87;;;8.03;;
18780;SDS011;9519;51.890;8.970;2023-04-06T02:04:43;11.07;;;7.57;;
18780;SDS011;9519;51.890;8.970;2023-04-06T02:09:47;11.80;;;7.57;;
18780;SDS011;9519;51.890;8.970;2023-04-06T02:14:52;9.90;;;7.53;;
18780;SDS011;9519;51.890;8.970;2023-04-06T02:19:58;11.13;;;7.70;;
18780;SDS011;9519;51.890;8.970;2023-04-06T02:25:01;11.17;;;7.90;;
18780;SDS011;9519;51.890;8.970;2023-04-06T02:30:04;12.53;;;7.80;;
18780;SDS011;9519;51.890;8.970;2023-04-06T02:35:08;10.40;;;7.63;;
18780;SDS011;9519;51.890;8.970;2023-04-06T02:40:12;8.93;;;6.73;;
18780;SDS011;9519;51.890;8.970;2023-04-06T02:45:15;12.93;;;8.63;;
18780;SDS011;9519;51.890;8.970;2023-04-06T02:50:17;13.30;;;7.73;;
18780;SDS011;9519;51.890;8.970;2023-04-06T02:55:21;14.40;;;8.57;;
18780;SDS011;9519;51.890;8.970;2023-04-06T03:00:23;13.13;;;7.93;;
18780;SDS011;9519;51.890;8.970;2023-04-06T03:05:25;12.83;;;8.43;;
18780;SDS011;9519;51.890;8.970;2023-04-06T03:10:29;10.60;;;7.83;;
18780;SDS011;9519;51.890;8.970;2023-04-06T03:15:31;12.40;;;8.03;;
18780;SDS011;9519;51.890;8.970;2023-04-06T03:20:33;12.63;;;8.73;;
18780;SDS011;9519;51.890;8.970;2023-04-06T03:25:37;12.17;;;8.40;;
18780;SDS011;9519;51.890;8.970;2023-04-06T03:30:40;15.20;;;8.63;;
18780;SDS011;9519;51.890;8.970;2023-04-06T03:35:42;12.47;;;8.43;;
18780;SDS011;9519;51.890;8.970;2023-04-06T03:40:46;11.43;;;8.30;;
18780;SDS011;9519;51.890;8.970;2023-04-06T03:45:48;15.43;;;8.60;;
18780;SDS011;9519;51.890;8.970;2023-04-06T03:50:51;14.67;;;9.13;;
18780;SDS011;9519;51.890;8.970;2023-04-06T03:55:54;12.47;;;8.50;;
18780;SDS011;9519;51.890;8.970;2023-04-06T04:00:56;11.90;;;8.00;;
18780;SDS011;9519;51.890;8.970;2023-04-06T04:05:59;14.87;;;8.57;;
18780;SDS011;9519;51.890;8.970;2023-04-06T04:11:02;13.33;;;8.77;;
18780;SDS011;9519;51.890;8.970;2023-04-06T04:16:05;12.63;;;9.23;;
18780;SDS011;9519;51.890;8.970;2023-04-06T04:21:07;10.93;;;8.53;;
18780;SDS011;9519;51.890;8.970;2023-04-06T04:26:11;12.10;;;9.00;;
18780;SDS011;9519;51.890;8.970;2023-04-06T04:31:13;15.10;;;8.97;;
18780;SDS011;9519;51.890;8.970;2023-04-06T04:36:17;13.07;;;8.87;;
18780;SDS011;9519;51.890;8.970;2023-04-06T04:41:21;10.93;;;8.20;;
18780;SDS011;9519;51.890;8.970;2023-04-06T04:46:23;12.63;;;8.87;;
18780;SDS011;9519;51.890;8.970;2023-04-06T04:51:26;12.57;;;8.47;;
18780;SDS011;9519;51.890;8.970;2023-04-06T04:56:30;12.30;;;8.27;;
18780;SDS011;9519;51.890;8.970;2023-04-06T05:01:32;13.17;;;9.07;;
18780;SDS011;9519;51.890;8.970;2023-04-06T05:06:34;13.27;;;9.63;;
18780;SDS011;9519;51.890;8.970;2023-04-06T05:11:38;13.00;;;9.13;;
18780;SDS011;9519;51.890;8.970;2023-04-06T05:16:40;13.70;;;9.47;;
18780;SDS011;9519;51.890;8.970;2023-04-06T05:21:42;11.83;;;8.43;;
18780;SDS011;9519;51.890;8.970;2023-04-06T05:26:46;15.07;;;8.77;;
18780;SDS011;9519;51.890;8.970;2023-04-06T05:31:50;11.83;;;8.80;;
18780;SDS011;9519;51.890;8.970;2023-04-06T05:36:52;13.53;;;9.80;;
18780;SDS011;9519;51.890;8.970;2023-04-06T05:41:56;13.00;;;9.80;;
18780;SDS011;9519;51.890;8.970;2023-04-06T05:46:58;12.00;;;9.10;;
18780;SDS011;9519;51.890;8.970;2023-04-06T05:52:00;13.70;;;9.53;;
18780;SDS011;9519;51.890;8.970;2023-04-06T05:57:05;13.63;;;9.90;;
18780;SDS011;9519;51.890;8.970;2023-04-06T06:02:07;14.07;;;10.30;;
18780;SDS011;9519;51.890;8.970;2023-04-06T06:07:10;12.07;;;9.07;;
18780;SDS011;9519;51.890;8.970;2023-04-06T06:12:14;13.67;;;9.63;;
18780;SDS011;9519;51.890;8.970;2023-04-06T06:17:16;13.63;;;9.07;;
18780;SDS011;9519;51.890;8.970;2023-04-06T06:22:18;16.10;;;10.70;;
18780;SDS011;9519;51.890;8.970;2023-04-06T06:27:22;14.80;;;9.27;;
18780;SDS011;9519;51.890;8.970;2023-04-06T06:32:24;15.70;;;9.67;;
18780;SDS011;9519;51.890;8.970;2023-04-06T06:37:26;13.70;;;9.33;;
18780;SDS011;9519;51.890;8.970;2023-04-06T06:42:30;12.87;;;9.70;;
18780;SDS011;9519;51.890;8.970;2023-04-06T06:47:32;13.53;;;9.63;;
18780;SDS011;9519;51.890;8.970;2023-04-06T06:52:34;14.90;;;10.00;;
18780;SDS011;9519;51.890;8.970;2023-04-06T06:57:38;13.37;;;9.40;;
18780;SDS011;9519;51.890;8.970;2023-04-06T07:02:42;17.33;;;10.57;;
18780;SDS011;9519;51.890;8.970;2023-04-06T07:07:44;16.67;;;11.37;;
18780;SDS011;9519;51.890;8.970;2023-04-06T07:12:48;14.60;;;9.80;;
18780;SDS011;9519;51.890;8.970;2023-04-06T07:17:50;12.73;;;9.33;;
18780;SDS011;9519;51.890;8.970;2023-04-06T07:22:54;16.33;;;9.93;;
18780;SDS011;9519;51.890;8.970;2023-04-06T07:27:58;13.73;;;9.40;;
18780;SDS011;9519;51.890;8.970;2023-04-06T07:33:00;11.53;;;8.97;;
18780;SDS011;9519;51.890;8.970;2023-04-06T07:38:02;12.87;;;8.87;;
18780;SDS011;9519;51.890;8.970;2023-04-06T07:43:07;12.70;;;8.93;;
18780;SDS011;9519;51.890;8.970;2023-04-06T07:48:09;13.33;;;8.60;;
18780;SDS011;9519;51.890;8.970;2023-04-06T07:53:12;11.73;;;8.27;;
18780;SDS011;9519;51.890;8.970;2023-04-06T07:58:15;10.60;;;8.13;;
18780;SDS011;9519;51.890;8.970;2023-04-06T08:03:17;10.40;;;7.50;;
18780;SDS011;9519;51.890;8.970;2023-04-06T08:08:25;11.43;;;7.93;;
18780;SDS011;9519;51.890;8.970;2023-04-06T08:13:29;10.83;;;7.50;;
18780;SDS011;9519;51.890;8.970;2023-04-06T08:18:31;10.70;;;7.40;;
18780;SDS011;9519;51.890;8.970;2023-04-06T08:23:33;11.60;;;7.40;;
18780;SDS011;9519;51.890;8.970;2023-04-06T08:28:37;10.57;;;7.63;;
18780;SDS011;9519;51.890;8.970;2023-04-06T08:33:39;10.53;;;7.03;;
18780;SDS011;9519;51.890;8.970;2023-04-06T08:38:42;9.97;;;7.00;;
18780;SDS011;9519;51.890;8.970;2023-04-06T08:43:46;10.73;;;7.33;;
18780;SDS011;9519;51.890;8.970;2023-04-06T08:48:50;9.73;;;6.73;;
18780;SDS011;9519;51.890;8.970;2023-04-06T08:53:53;9.10;;;6.80;;
18780;SDS011;9519;51.890;8.970;2023-04-06T08:58:59;10.17;;;6.97;;
18780;SDS011;9519;51.890;8.970;2023-04-06T09:04:02;12.00;;;7.47;;
18780;SDS011;9519;51.890;8.970;2023-04-06T09:09:09;10.10;;;7.30;;
18780;SDS011;9519;51.890;8.970;2023-04-06T09:14:13;12.27;;;7.67;;
18780;SDS011;9519;51.890;8.970;2023-04-06T09:19:16;10.47;;;7.20;;
18780;SDS011;9519;51.890;8.970;2023-04-06T09:24:18;11.90;;;7.47;;
18780;SDS011;9519;51.890;8.970;2023-04-06T09:29:27;10.40;;;7.33;;
18780;SDS011;9519;51.890;8.970;2023-04-06T09:34:29;11.00;;;7.67;;
18780;SDS011;9519;51.890;8.970;2023-04-06T09:39:32;20.27;;;10.03;;
18780;SDS011;9519;51.890;8.970;2023-04-06T09:44:35;11.40;;;8.17;;
18780;SDS011;9519;51.890;8.970;2023-04-06T09:49:38;14.57;;;7.80;;
18780;SDS011;9519;51.890;8.970;2023-04-06T09:54:40;13.00;;;8.63;;
18780;SDS011;9519;51.890;8.970;2023-04-06T09:59:50;14.47;;;8.30;;
18780;SDS011;9519;51.890;8.970;2023-04-06T10:05:09;11.90;;;7.77;;
18780;SDS011;9519;51.890;8.970;2023-04-06T10:10:18;10.80;;;7.93;;
18780;SDS011;9519;51.890;8.970;2023-04-06T10:15:22;10.87;;;8.37;;
18780;SDS011;9519;51.890;8.970;2023-04-06T10:20:26;12.27;;;8.17;;
18780;SDS011;9519;51.890;8.970;2023-04-06T10:25:37;12.83;;;8.83;;
18780;SDS011;9519;51.890;8.970;2023-04-06T10:30:42;13.33;;;8.67;;
18780;SDS011;9519;51.890;8.970;2023-04-06T10:35:44;12.20;;;8.47;;
18780;SDS011;9519;51.890;8.970;2023-04-06T10:40:46;13.00;;;8.47;;
18780;SDS011;9519;51.890;8.970;2023-04-06T10:45:56;13.63;;;9.07;;
18780;SDS011;9519;51.890;8.970;2023-04-06T10:51:00;13.67;;;9.00;;
18780;SDS011;9519;51.890;8.970;2023-04-06T10:56:03;12.67;;;9.23;;
18780;SDS011;9519;51.890;8.970;2023-04-06T11:01:13;12.57;;;8.93;;
18780;SDS011;9519;51.890;8.970;2023-04-06T11:06:17;17.70;;;10.83;;
18780;SDS011;9519;51.890;8.970;2023-04-06T11:11:21;14.87;;;9.13;;
18780;SDS011;9519;51.890;8.970;2023-04-06T11:16:28;14.17;;;9.50;;
18780;SDS011;9519;51.890;8.970;2023-04-06T11:21:33;12.97;;;9.07;;
18780;SDS011;9519;51.890;8.970;2023-04-06T11:26:39;14.77;;;9.93;;
18780;SDS011;9519;51.890;8.970;2023-04-06T11:31:47;13.87;;;9.93;;
18780;SDS011;9519;51.890;8.970;2023-04-06T11:36:54;14.23;;;9.50;;
18780;SDS011;9519;51.890;8.970;2023-04-06T11:41:59;15.93;;;10.40;;
18780;SDS011;9519;51.890;8.970;2023-04-06T11:47:04;16.33;;;10.00;;
18780;SDS011;9519;51.890;8.970;2023-04-06T11:52:15;18.83;;;10.93;;
18780;SDS011;9519;51.890;8.970;2023-04-06T11:57:21;21.20;;;10.57;;
18780;SDS011;9519;51.890;8.970;2023-04-06T12:02:25;16.50;;;10.03;;
18780;SDS011;9519;51.890;8.970;2023-04-06T12:07:28;15.00;;;10.60;;
18780;SDS011;9519;51.890;8.970;2023-04-06T12:12:30;14.27;;;10.20;;
18780;SDS011;9519;51.890;8.970;2023-04-06T12:17:34;17.03;;;10.33;;
18780;SDS011;9519;51.890;8.970;2023-04-06T12:22:36;17.63;;;11.03;;
18780;SDS011;9519;51.890;8.970;2023-04-06T12:27:39;17.47;;;10.13;;
18780;SDS011;9519;51.890;8.970;2023-04-06T12:32:42;14.43;;;9.27;;
18780;SDS011;9519;51.890;8.970;2023-04-06T12:37:46;17.00;;;10.30;;
18780;SDS011;9519;51.890;8.970;2023-04-06T12:42:48;14.27;;;10.33;;
18780;SDS011;9519;51.890;8.970;2023-04-06T12:47:51;16.37;;;11.73;;
18780;SDS011;9519;51.890;8.970;2023-04-06T12:52:53;18.70;;;11.87;;
18780;SDS011;9519;51.890;8.970;2023-04-06T12:57:56;18.93;;;12.37;;
18780;SDS011;9519;51.890;8.970;2023-04-06T13:02:59;16.43;;;10.90;;
18780;SDS011;9519;51.890;8.970;2023-04-06T13:08:01;18.03;;;12.50;;
18780;SDS011;9519;51.890;8.970;2023-04-06T13:13:04;20.73;;;13.13;;
18780;SDS011;9519;51.890;8.970;2023-04-06T13:18:07;16.40;;;11.13;;
18780;SDS011;9519;51.890;8.970;2023-04-06T13:23:10;21.10;;;11.63;;
18780;SDS011;9519;51.890;8.970;2023-04-06T13:28:12;16.80;;;12.53;;
18780;SDS011;9519;51.890;8.970;2023-04-06T13:33:16;20.30;;;12.93;;
18780;SDS011;9519;51.890;8.970;2023-04-06T13:38:18;18.07;;;11.97;;
18780;SDS011;9519;51.890;8.970;2023-04-06T13:43:21;18.10;;;12.17;;
18780;SDS011;9519;51.890;8.970;2023-04-06T13:48:27;15.93;;;10.87;;
18780;SDS011;9519;51.890;8.970;2023-04-06T13:53:29;16.57;;;12.17;;
18780;SDS011;9519;51.890;8.970;2023-04-06T13:58:31;15.23;;;10.83;;
18780;SDS011;9519;51.890;8.970;2023-04-06T14:03:35;16.53;;;12.67;;
18780;SDS011;9519;51.890;8.970;2023-04-06T14:08:39;18.20;;;12.83;;
18780;SDS011;9519;51.890;8.970;2023-04-06T14:13:41;16.07;;;12.57;;
18780;SDS011;9519;51.890;8.970;2023-04-06T14:18:44;17.30;;;13.13;;
18780;SDS011;9519;51.890;8.970;2023-04-06T14:23:46;16.10;;;13.00;;
18780;SDS011;9519;51.890;8.970;2023-04-06T14:28:48;19.10;;;12.40;;
18780;SDS011;9519;51.890;8.970;2023-04-06T14:33:53;17.73;;;13.05;;
18780;SDS011;9519;51.890;8.970;2023-04-06T14:38:56;18.97;;;12.83;;
18780;SDS011;9519;51.890;8.970;2023-04-06T14:43:58;26.33;;;16.60;;
18780;SDS011;9519;51.890;8.970;2023-04-06T14:49:02;17.10;;;12.18;;
18780;SDS011;9519;51.890;8.970;2023-04-06T14:54:07;19.58;;;12.27;;
18780;SDS011;9519;51.890;8.970;2023-04-06T14:59:09;18.10;;;12.88;;
18780;SDS011;9519;51.890;8.970;2023-04-06T15:04:12;17.75;;;11.80;;
18780;SDS011;9519;51.890;8.970;2023-04-06T15:09:15;15.48;;;11.68;;
18780;SDS011;9519;51.890;8.970;2023-04-06T15:14:17;15.33;;;12.20;;
18780;SDS011;9519;51.890;8.970;2023-04-06T15:19:20;15.10;;;11.13;;
18780;SDS011;9519;51.890;8.970;2023-04-06T15:24:23;20.75;;;12.27;;
18780;SDS011;9519;51.890;8.970;2023-04-06T15:29:25;19.15;;;11.57;;
18780;SDS011;9519;51.890;8.970;2023-04-06T15:34:29;18.55;;;12.77;;
18780;SDS011;9519;51.890;8.970;2023-04-06T15:39:34;15.98;;;12.45;;
18780;SDS011;9519;51.890;8.970;2023-04-06T15:44:36;17.27;;;12.70;;
18780;SDS011;9519;51.890;8.970;2023-04-06T15:49:40;20.17;;;12.97;;
18780;SDS011;9519;51.890;8.970;2023-04-06T15:54:42;21.00;;;12.70;;
18780;SDS011;9519;51.890;8.970;2023-04-06T15:59:44;19.20;;;12.27;;
18780;SDS011;9519;51.890;8.970;2023-04-06T16:04:47;18.77;;;10.50;;
18780;SDS011;9519;51.890;8.970;2023-04-06T16:09:50;17.53;;;10.97;;
18780;SDS011;9519;51.890;8.970;2023-04-06T16:14:52;13.90;;;9.47;;
18780;SDS011;9519;51.890;8.970;2023-04-06T16:19:55;16.40;;;10.47;;
18780;SDS011;9519;51.890;8.970;2023-04-06T16:24:57;16.47;;;10.33;;
18780;SDS011;9519;51.890;8.970;2023-04-06T16:29:59;18.50;;;9.60;;
18780;SDS011;9519;51.890;8.970;2023-04-06T16:35:03;13.53;;;9.07;;
18780;SDS011;9519;51.890;8.970;2023-04-06T16:40:07;14.97;;;9.77;;
18780;SDS011;9519;51.890;8.970;2023-04-06T16:45:10;13.13;;;8.23;;
18780;SDS011;9519;51.890;8.970;2023-04-06T16:50:15;18.40;;;9.53;;
18780;SDS011;9519;51.890;8.970;2023-04-06T16:55:17;15.33;;;11.27;;
18780;SDS011;9519;51.890;8.970;2023-04-06T17:00:20;14.27;;;9.47;;
18780;SDS011;9519;51.890;8.970;2023-04-06T17:05:24;13.43;;;8.60;;
18780;SDS011;9519;51.890;8.970;2023-04-06T17:10:26;11.90;;;7.50;;
18780;SDS011;9519;51.890;8.970;2023-04-06T17:15:28;15.13;;;8.30;;
18780;SDS011;9519;51.890;8.970;2023-04-06T17:20:32;12.23;;;9.03;;
18780;SDS011;9519;51.890;8.970;2023-04-06T17:25:35;11.90;;;8.27;;
18780;SDS011;9519;51.890;8.970;2023-04-06T17:30:38;12.73;;;7.30;;
18780;SDS011;9519;51.890;8.970;2023-04-06T17:35:43;14.80;;;7.53;;
18780;SDS011;9519;51.890;8.970;2023-04-06T17:40:45;12.50;;;7.00;;
18780;SDS011;9519;51.890;8.970;2023-04-06T17:45:47;13.60;;;7.00;;
18780;SDS011;9519;51.890;8.970;2023-04-06T17:50:52;12.57;;;7.33;;
18780;SDS011;9519;51.890;8.970;2023-04-06T17:55:54;10.77;;;6.90;;
18780;SDS011;9519;51.890;8.970;2023-04-06T18:00:56;10.77;;;7.23;;
18780;SDS011;9519;51.890;8.970;2023-04-06T18:06:08;11.93;;;8.03;;
18780;SDS011;9519;51.890;8.970;2023-04-06T18:11:15;13.50;;;8.20;;
18780;SDS011;9519;51.890;8.970;2023-04-06T18:16:18;16.50;;;8.40;;
18780;SDS011;9519;51.890;8.970;2023-04-06T18:21:22;15.93;;;9.30;;
18780;SDS011;9519;51.890;8.970;2023-04-06T18:26:26;15.27;;;8.73;;
18780;SDS011;9519;51.890;8.970;2023-04-06T18:31:28;13.70;;;9.33;;
18780;SDS011;9519;51.890;8.970;2023-04-06T18:36:32;16.43;;;9.93;;
18780;SDS011;9519;51.890;8.970;2023-04-06T18:41:34;17.03;;;9.60;;
18780;SDS011;9519;51.890;8.970;2023-04-06T18:46:36;18.50;;;9.67;;
18780;SDS011;9519;51.890;8.970;2023-04-06T18:51:41;13.23;;;9.97;;
18780;SDS011;9519;51.890;8.970;2023-04-06T18:56:43;18.37;;;10.87;;
18780;SDS011;9519;51.890;8.970;2023-04-06T19:01:45;16.53;;;10.10;;
18780;SDS011;9519;51.890;8.970;2023-04-06T19:06:53;16.07;;;10.77;;
18780;SDS011;9519;51.890;8.970;2023-04-06T19:11:55;16.10;;;10.27;;
18780;SDS011;9519;51.890;8.970;2023-04-06T19:16:57;14.90;;;9.57;;
18780;SDS011;9519;51.890;8.970;2023-04-06T19:22:02;15.37;;;9.27;;
18780;SDS011;9519;51.890;8.970;2023-04-06T19:27:04;15.30;;;9.83;;
18780;SDS011;9519;51.890;8.970;2023-04-06T19:32:06;13.23;;;8.67;;
18780;SDS011;9519;51.890;8.970;2023-04-06T19:37:12;16.27;;;9.47;;
18780;SDS011;9519;51.890;8.970;2023-04-06T19:42:14;14.27;;;9.40;;
18780;SDS011;9519;51.890;8.970;2023-04-06T19:47:20;15.47;;;10.83;;
18780;SDS011;9519;51.890;8.970;2023-04-06T19:52:23;19.87;;;10.97;;
18780;SDS011;9519;51.890;8.970;2023-04-06T19:57:25;15.83;;;10.50;;
18780;SDS011;9519;51.890;8.970;2023-04-06T20:02:27;19.07;;;12.77;;
18780;SDS011;9519;51.890;8.970;2023-04-06T20:07:31;44.10;;;26.63;;
18780;SDS011;9519;51.890;8.970;2023-04-06T20:12:33;19.20;;;13.13;;
18780;SDS011;9519;51.890;8.970;2023-04-06T20:17:36;14.43;;;9.47;;
18780;SDS011;9519;51.890;8.970;2023-04-06T20:22:39;16.40;;;11.17;;
18780;SDS011;9519;51.890;8.970;2023-04-06T20:27:42;14.57;;;9.80;;
18780;SDS011;9519;51.890;8.970;2023-04-06T20:32:44;12.70;;;7.70;;
18780;SDS011;9519;51.890;8.970;2023-04-06T20:37:48;11.10;;;7.43;;
18780;SDS011;9519;51.890;8.970;2023-04-06T20:42:51;11.13;;;7.30;;
18780;SDS011;9519;51.890;8.970;2023-04-06T20:47:55;13.27;;;8.00;;
18780;SDS011;9519;51.890;8.970;2023-04-06T20:52:59;13.10;;;7.00;;
18780;SDS011;9519;51.890;8.970;2023-04-06T20:58:01;12.07;;;8.50;;
18780;SDS011;9519;51.890;8.970;2023-04-06T21:03:03;11.77;;;8.10;;
18780;SDS011;9519;51.890;8.970;2023-04-06T21:08:09;13.50;;;8.47;;
18780;SDS011;9519;51.890;8.970;2023-04-06T21:13:12;12.13;;;7.90;;
18780;SDS011;9519;51.890;8.970;2023-04-06T21:18:14;11.27;;;8.50;;
18780;SDS011;9519;51.890;8.970;2023-04-06T21:23:17;11.93;;;8.13;;
18780;SDS011;9519;51.890;8.970;2023-04-06T21:28:20;13.30;;;8.20;;
18780;SDS011;9519;51.890;8.970;2023-04-06T21:33:23;12.03;;;8.67;;
18780;SDS011;9519;51.890;8.970;2023-04-06T21:38:26;10.73;;;8.10;;
18780;SDS011;9519;51.890;8.970;2023-04-06T21:43:28;13.03;;;8.60;;
18780;SDS011;9519;51.890;8.970;2023-04-06T21:48:33;11.97;;;7.83;;
18780;SDS011;9519;51.890;8.970;2023-04-06T21:53:37;11.77;;;8.13;;
18780;SDS011;9519;51.890;8.970;2023-04-06T21:58:40;14.97;;;9.20;;
18780;SDS011;9519;51.890;8.970;2023-04-06T22:03:43;16.60;;;11.63;;
18780;SDS011;9519;51.890;8.970;2023-04-06T22:08:47;18.93;;;12.00;;
18780;SDS011;9519;51.890;8.970;2023-04-06T22:13:49;15.27;;;10.20;;
18780;SDS011;9519;51.890;8.970;2023-04-06T22:18:51;12.53;;;9.23;;
18780;SDS011;9519;51.890;8.970;2023-04-06T22:23:55;13.57;;;9.53;;
18780;SDS011;9519;51.890;8.970;2023-04-06T22:28:57;12.90;;;8.90;;
18780;SDS011;9519;51.890;8.970;2023-04-06T22:33:59;14.03;;;8.70;;
18780;SDS011;9519;51.890;8.970;2023-04-06T22:39:03;13.37;;;9.00;;
18780;SDS011;9519;51.890;8.970;2023-04-06T22:44:05;11.90;;;8.87;;
18780;SDS011;9519;51.890;8.970;2023-04-06T22:49:07;12.73;;;8.53;;
18780;SDS011;9519;51.890;8.970;2023-04-06T22:54:11;14.77;;;8.80;;
18780;SDS011;9519;51.890;8.970;2023-04-06T22:59:13;10.83;;;7.97;;
18780;SDS011;9519;51.890;8.970;2023-04-06T23:04:15;13.33;;;8.83;;
18780;SDS011;9519;51.890;8.970;2023-04-06T23:09:19;12.50;;;8.90;;
18780;SDS011;9519;51.890;8.970;2023-04-06T23:14:21;11.27;;;8.67;;
18780;SDS011;9519;51.890;8.970;2023-04-06T23:19:23;12.27;;;8.53;;
18780;SDS011;9519;51.890;8.970;2023-04-06T23:24:27;12.47;;;8.30;;
18780;SDS011;9519;51.890;8.970;2023-04-06T23:29:29;12.07;;;8.13;;
18780;SDS011;9519;51.890;8.970;2023-04-06T23:34:31;10.60;;;8.60;;
18780;SDS011;9519;51.890;8.970;2023-04-06T23:39:34;13.20;;;10.03;;
18780;SDS011;9519;51.890;8.970;2023-04-06T23:44:38;12.63;;;9.50;;
18780;SDS011;9519;51.890;8.970;2023-04-06T23:49:40;15.43;;;10.30;;
18780;SDS011;9519;51.890;8.970;2023-04-06T23:54:43;12.27;;;8.57;;
18780;SDS011;9519;51.890;8.970;2023-04-06T23:59:45;11.67;;;8.30;;
